Time;durP1;ratioP1;P1;durP2;ratioP2;P2;SDS_P1;SDS_P2;PMS_P1;PMS_P2;Temp;Humidity;BMP_temperature;BMP_pressure;BME280_temperature;BME280_humidity;BME280_pressure;Samples;Min_cycle;Max_cycle;Signal;HPM_P1;HPM_P2
2021/07/16 00:00:50;;;;;;;5.38;4.53;;;;;;;18.83;72.18;97332.22;5042261;28;20021;-78
2021/07/16 00:03:17;;;;;;;5.22;4.18;;;;;;;18.84;72.21;97333.78;5041725;28;20064;-78
2021/07/16 00:05:43;;;;;;;6.30;4.60;;;;;;;18.85;72.22;97324.78;5027289;28;20548;-78
2021/07/16 00:08:10;;;;;;;4.40;4.00;;;;;;;18.86;72.29;97331.63;5047838;28;20090;-78
2021/07/16 00:10:37;;;;;;;4.38;3.97;;;;;;;18.82;72.00;97325.38;5046414;28;20423;-78
2021/07/16 00:13:07;;;;;;;3.92;3.63;;;;;;;18.79;72.01;97329.34;5015351;28;20537;-78
2021/07/16 00:15:34;;;;;;;5.18;4.03;;;;;;;18.77;72.27;97331.50;5022973;28;20029;-78
2021/07/16 00:18:00;;;;;;;5.60;4.20;;;;;;;18.77;72.20;97328.88;5028649;28;20021;-78
2021/07/16 00:20:27;;;;;;;4.57;4.18;;;;;;;18.74;72.31;97323.41;5044093;28;20037;-78
2021/07/16 00:22:59;;;;;;;4.40;4.00;;;;;;;18.63;72.28;97322.84;5028586;28;20083;-78
2021/07/16 00:25:25;;;;;;;6.90;3.47;;;;;;;18.63;72.08;97320.97;5007858;28;20084;-78
2021/07/16 00:27:52;;;;;;;3.63;3.33;;;;;;;18.67;72.00;97321.94;5043718;28;20029;-78
2021/07/16 00:30:19;;;;;;;4.47;3.53;;;;;;;18.66;71.66;97322.22;5030063;28;20029;-78
2021/07/16 00:32:45;;;;;;;4.97;3.58;;;;;;;18.63;71.48;97326.25;5048557;28;20047;-78
2021/07/16 00:35:14;;;;;;;3.67;3.38;;;;;;;18.66;71.82;97319.59;5011582;28;20029;-78
2021/07/16 00:37:40;;;;;;;3.40;3.10;;;;;;;18.61;71.64;97319.69;5025124;28;20037;-78
2021/07/16 00:40:09;;;;;;;5.22;4.25;;;;;;;18.53;71.80;97324.56;5015253;28;20087;-78
2021/07/16 00:42:35;;;;;;;3.85;3.55;;;;;;;18.60;71.91;97324.19;5023020;28;20090;-78
2021/07/16 00:45:02;;;;;;;3.97;3.58;;;;;;;18.59;71.64;97330.53;5038752;28;20037;-78
2021/07/16 00:47:28;;;;;;;4.15;3.60;;;;;;;18.51;71.53;97336.50;5033747;28;20044;-78
2021/07/16 00:49:54;;;;;;;3.92;2.90;;;;;;;18.49;71.72;97334.16;5017729;28;20064;-78
2021/07/16 00:52:21;;;;;;;3.58;2.85;;;;;;;18.46;71.78;97336.59;5052602;28;20472;-78
2021/07/16 00:54:46;;;;;;;3.85;3.10;;;;;;;18.48;71.74;97342.34;5036142;28;20029;-78
2021/07/16 00:57:12;;;;;;;5.47;3.30;;;;;;;18.44;71.45;97343.97;5046690;28;20107;-78
2021/07/16 00:59:39;;;;;;;3.88;3.47;;;;;;;18.39;71.43;97354.66;4981270;28;20606;-78
2021/07/16 01:02:06;;;;;;;3.20;2.90;;;;;;;18.39;71.56;97350.16;5065606;23;20057;-78
2021/07/16 01:04:33;;;;;;;4.60;3.47;;;;;;;18.34;71.66;97344.97;5036315;28;20033;-78
2021/07/16 01:06:58;;;;;;;3.60;3.30;;;;;;;18.37;71.66;97341.75;5023198;28;20118;-78
2021/07/16 01:09:24;;;;;;;4.35;3.35;;;;;;;18.36;72.09;97345.44;5019640;28;20084;-78
2021/07/16 01:11:50;;;;;;;3.70;3.40;;;;;;;18.38;71.75;97342.53;5035857;28;20025;-78
2021/07/16 01:14:16;;;;;;;3.65;3.30;;;;;;;18.37;71.95;97340.94;5026814;28;20137;-78
2021/07/16 01:16:43;;;;;;;3.67;3.38;;;;;;;18.36;71.87;97334.91;5016104;28;20063;-78
2021/07/16 01:19:11;;;;;;;4.75;3.50;;;;;;;18.43;72.18;97340.56;5036346;28;20044;-78
2021/07/16 01:21:38;;;;;;;3.78;3.47;;;;;;;18.49;71.96;97333.34;5030758;28;20036;-78
2021/07/16 01:24:07;;;;;;;4.10;3.78;;;;;;;18.47;71.92;97341.56;5006505;28;20610;-78
2021/07/16 01:26:35;;;;;;;4.18;3.67;;;;;;;18.44;71.86;97343.97;5019756;28;20391;-78
2021/07/16 01:29:03;;;;;;;5.10;3.40;;;;;;;18.50;72.03;97342.81;5012238;28;20025;-78
2021/07/16 01:31:30;;;;;;;4.90;3.90;;;;;;;18.49;71.80;97338.63;5030538;28;20031;-78
2021/07/16 01:33:57;;;;;;;3.70;2.97;;;;;;;18.47;71.71;97336.28;5019751;28;20387;-78
2021/07/16 01:36:24;;;;;;;5.68;2.63;;;;;;;18.51;71.75;97329.34;5016536;28;20087;-77
2021/07/16 01:38:50;;;;;;;4.75;3.25;;;;;;;18.51;71.97;97336.50;5035477;28;20029;-77
2021/07/16 01:41:17;;;;;;;4.07;2.97;;;;;;;18.48;72.03;97340.47;5019034;28;20091;-77
2021/07/16 01:43:43;;;;;;;3.05;2.83;;;;;;;18.46;71.80;97340.00;5018843;28;20059;-77
2021/07/16 01:46:08;;;;;;;2.78;2.13;;;;;;;18.49;71.72;97355.25;5002106;28;20089;-77
2021/07/16 01:48:34;;;;;;;2.92;2.67;;;;;;;18.42;72.00;97349.56;5018649;28;20057;-77
2021/07/16 01:50:59;;;;;;;3.22;2.63;;;;;;;18.42;72.12;97356.69;5002189;28;20035;-77
2021/07/16 01:53:24;;;;;;;3.35;3.05;;;;;;;18.40;72.49;97364.88;5035162;28;20100;-77
2021/07/16 01:55:50;;;;;;;3.05;2.80;;;;;;;18.42;72.15;97354.03;5017000;28;20037;-77
2021/07/16 01:58:16;;;;;;;2.92;2.70;;;;;;;18.47;72.48;97364.50;5018220;28;20037;-79
2021/07/16 02:00:44;;;;;;;2.95;2.75;;;;;;;18.50;72.38;97367.34;5048964;28;20040;-79
2021/07/16 02:03:11;;;;;;;3.53;3.13;;;;;;;18.52;72.34;97365.22;5016224;28;20167;-79
2021/07/16 02:05:38;;;;;;;4.13;3.58;;;;;;;18.56;72.55;97369.88;5019008;28;20064;-79
2021/07/16 02:08:07;;;;;;;6.15;3.80;;;;;;;18.58;72.52;97368.53;5018772;28;20072;-79
2021/07/16 02:10:32;;;;;;;3.80;3.33;;;;;;;18.66;72.47;97373.13;5035276;28;20697;-78
2021/07/16 02:12:59;;;;;;;4.00;3.60;;;;;;;18.64;72.48;97367.34;5018584;28;20036;-79
2021/07/16 02:15:28;;;;;;;4.55;3.30;;;;;;;18.63;72.54;97375.56;5035274;28;20033;-79
2021/07/16 02:17:54;;;;;;;3.95;3.58;;;;;;;18.73;72.31;97370.13;5035489;28;20029;-79
2021/07/16 02:20:24;;;;;;;3.47;3.17;;;;;;;18.70;72.36;97363.56;5018850;28;20474;-76
2021/07/16 02:22:53;;;;;;;3.97;3.60;;;;;;;18.75;72.44;97361.88;5017494;28;20031;-79
2021/07/16 02:25:20;;;;;;;5.60;3.92;;;;;;;18.77;72.49;97359.75;5034975;28;20041;-79
2021/07/16 02:27:50;;;;;;;4.78;3.95;;;;;;;18.69;72.55;97358.56;5017256;28;20028;-76
2021/07/16 02:30:19;;;;;;;4.78;4.32;;;;;;;18.73;72.65;97364.84;5032378;28;20618;-79
2021/07/16 02:32:45;;;;;;;4.82;3.92;;;;;;;18.78;72.53;97356.84;5018539;28;20056;-79
2021/07/16 02:35:11;;;;;;;3.88;3.58;;;;;;;18.85;72.73;97359.09;5001943;28;20029;-79
2021/07/16 02:37:37;;;;;;;4.35;3.95;;;;;;;18.87;72.72;97364.88;5012272;28;20025;-79
2021/07/16 02:40:05;;;;;;;6.13;3.80;;;;;;;18.82;72.87;97357.81;5034458;28;20103;-79
2021/07/16 02:42:30;;;;;;;4.55;4.13;;;;;;;18.89;72.57;97358.22;5018607;28;20045;-79
2021/07/16 02:44:55;;;;;;;4.50;4.10;;;;;;;18.93;72.91;97368.97;5002075;28;20636;-79
2021/07/16 02:47:21;;;;;;;4.20;3.80;;;;;;;18.97;72.89;97353.31;5034140;28;20379;-79
2021/07/16 02:49:46;;;;;;;4.60;3.72;;;;;;;18.94;72.84;97351.28;5001265;28;20039;-79
2021/07/16 02:52:14;;;;;;;4.00;3.50;;;;;;;18.97;72.89;97353.31;5034424;28;20456;-79
2021/07/16 02:54:39;;;;;;;4.22;3.75;;;;;;;18.95;72.95;97350.19;5034656;28;20124;-79
2021/07/16 02:57:04;;;;;;;3.33;3.00;;;;;;;18.99;72.74;97353.81;5033114;28;20507;-79
2021/07/16 02:59:30;;;;;;;5.57;2.95;;;;;;;19.00;72.54;97358.78;5033710;28;20035;-79
2021/07/16 03:01:56;;;;;;;3.15;2.85;;;;;;;18.92;72.30;97351.56;5033188;28;20025;-79
2021/07/16 03:04:22;;;;;;;2.92;2.72;;;;;;;18.86;72.17;97347.47;5033387;28;20045;-79
2021/07/16 03:06:48;;;;;;;3.95;3.65;;;;;;;18.80;72.38;97349.41;5001503;28;20028;-79
2021/07/16 03:09:13;;;;;;;4.03;2.70;;;;;;;18.83;72.50;97356.75;5034145;28;20024;-79
2021/07/16 03:11:39;;;;;;;3.67;3.08;;;;;;;18.82;72.77;97357.81;5016166;28;20072;-79
2021/07/16 03:14:05;;;;;;;3.50;3.20;;;;;;;18.82;72.70;97362.31;5033778;28;20033;-79
2021/07/16 03:16:31;;;;;;;4.43;3.15;;;;;;;18.78;72.75;97367.38;5033570;28;20040;-79
2021/07/16 03:19:00;;;;;;;4.18;3.33;;;;;;;18.68;73.02;97378.91;5000971;28;20032;-79
2021/07/16 03:21:26;;;;;;;3.47;2.92;;;;;;;18.81;72.73;97366.78;5017595;28;20029;-79
2021/07/16 03:23:51;;;;;;;2.92;2.72;;;;;;;18.85;72.72;97375.72;5017907;28;20333;-79
2021/07/16 03:26:17;;;;;;;3.85;3.38;;;;;;;18.87;72.39;97370.16;5017122;28;20060;-79
2021/07/16 03:28:42;;;;;;;3.72;3.42;;;;;;;18.94;72.68;97369.75;5015220;28;20029;-78
2021/07/16 03:31:08;;;;;;;4.00;3.47;;;;;;;18.96;72.26;97362.31;5004695;28;20021;-79
2021/07/16 03:33:34;;;;;;;4.13;3.45;;;;;;;18.95;72.59;97361.53;5017500;28;20031;-79
2021/07/16 03:36:00;;;;;;;3.90;3.60;;;;;;;18.94;72.57;97365.25;5015162;28;20087;-78
2021/07/16 03:38:25;;;;;;;4.50;4.10;;;;;;;18.97;72.55;97369.94;5049532;28;20025;-79
2021/07/16 03:40:55;;;;;;;4.90;3.67;;;;;;;18.96;72.43;97372.88;5003604;28;20041;-79
2021/07/16 03:43:20;;;;;;;3.70;3.40;;;;;;;18.96;72.79;97376.28;5017605;28;20103;-79
2021/07/16 03:45:46;;;;;;;4.72;3.47;;;;;;;18.96;72.72;97373.66;5000564;28;20131;-79
2021/07/16 03:48:11;;;;;;;4.30;3.90;;;;;;;19.00;72.57;97368.56;5015764;28;20033;-79
2021/07/16 03:50:37;;;;;;;3.85;3.53;;;;;;;19.01;72.69;97370.91;5033355;28;20032;-79
2021/07/16 03:53:03;;;;;;;4.25;3.92;;;;;;;19.01;72.44;97375.41;5029127;28;20048;-79
2021/07/16 03:55:29;;;;;;;4.10;3.70;;;;;;;19.03;72.66;97378.53;5033447;28;20065;-79
2021/07/16 03:57:54;;;;;;;4.40;4.00;;;;;;;19.04;72.74;97380.88;5031844;28;20064;-76
2021/07/16 04:00:25;;;;;;;5.32;4.10;;;;;;;19.02;72.67;97384.88;5014511;28;20037;-76
2021/07/16 04:02:51;;;;;;;7.60;6.80;;;;;;;19.05;72.68;97379.78;5049091;28;20570;-79
2021/07/16 04:05:16;;;;;;;6.97;6.10;;;;;;;19.13;72.50;97390.75;5015173;28;20033;-79
2021/07/16 04:07:49;;;;;;;5.97;5.38;;;;;;;19.15;72.58;97392.00;5000135;28;20021;-79
2021/07/16 04:10:19;;;;;;;8.38;6.50;;;;;;;19.12;72.58;97383.91;5033237;28;20064;-76
2021/07/16 04:12:51;;;;;;;10.80;8.00;;;;;;;19.05;72.84;97379.03;5031713;28;20021;-79
2021/07/16 04:15:17;;;;;;;14.50;10.27;;;;;;;19.25;73.03;97383.13;5016814;28;20060;-79
2021/07/16 04:17:44;;;;;;;14.65;10.15;;;;;;;19.32;72.56;97386.13;5030993;28;20036;-77
2021/07/16 04:20:10;;;;;;;19.05;11.52;;;;;;;19.33;73.03;97393.00;5030893;28;20029;-78
2021/07/16 04:22:36;;;;;;;17.25;11.95;;;;;;;19.36;73.47;97388.97;5033163;28;20396;-79
2021/07/16 04:25:01;;;;;;;19.63;13.73;;;;;;;19.45;73.06;97400.41;5053453;28;20035;-76
2021/07/16 04:27:27;;;;;;;19.23;14.05;;;;;;;19.48;73.38;97410.34;5019405;28;20029;-79
2021/07/16 04:29:52;;;;;;;24.30;15.77;;;;;;;19.49;73.52;97414.56;5019713;28;20036;-80
2021/07/16 04:32:18;;;;;;;21.20;15.05;;;;;;;19.57;73.55;97405.94;5003399;28;20029;-80
2021/07/16 04:34:43;;;;;;;23.77;15.52;;;;;;;19.69;73.03;97404.63;5020713;28;20399;-77
2021/07/16 04:37:09;;;;;;;20.17;13.40;;;;;;;19.73;72.98;97398.47;5012697;28;20041;-79
2021/07/16 04:39:35;;;;;;;25.58;16.10;;;;;;;19.79;73.08;97399.16;5052352;28;20075;-77
2021/07/16 04:42:01;;;;;;;25.02;15.85;;;;;;;19.84;73.08;97399.03;5035646;28;20036;-77
2021/07/16 04:44:26;;;;;;;27.20;17.33;;;;;;;19.93;73.19;97401.75;5001904;28;20496;-79
2021/07/16 04:46:52;;;;;;;30.08;19.60;;;;;;;19.94;73.19;97406.75;5002902;28;20029;-79
2021/07/16 04:49:18;;;;;;;30.02;19.00;;;;;;;19.97;73.43;97415.94;5035772;28;20028;-77
2021/07/16 04:51:44;;;;;;;29.83;18.05;;;;;;;20.06;73.42;97408.09;5018151;28;20025;-77
2021/07/16 04:54:11;;;;;;;29.92;19.23;;;;;;;20.14;73.49;97410.78;5019289;28;20465;-77
2021/07/16 04:56:37;;;;;;;26.42;18.38;;;;;;;20.20;73.21;97424.66;5019068;28;20029;-77
2021/07/16 04:59:03;;;;;;;27.08;17.70;;;;;;;20.19;73.22;97413.31;5051576;28;20090;-77
2021/07/16 05:01:28;;;;;;;28.52;18.50;;;;;;;20.27;73.16;97411.00;5028108;28;20045;-79
2021/07/16 05:03:54;;;;;;;25.60;17.15;;;;;;;20.32;72.62;97413.53;5018906;28;20527;-80
2021/07/16 05:06:21;;;;;;;27.17;18.35;;;;;;;20.35;72.97;97412.94;5052535;28;20064;-79
2021/07/16 05:08:47;;;;;;;26.77;17.95;;;;;;;20.34;72.73;97408.72;5001992;28;20025;-77
2021/07/16 05:11:13;;;;;;;29.02;18.42;;;;;;;20.40;72.73;97415.47;5018377;28;20531;-80
2021/07/16 05:13:39;;;;;;;26.83;17.55;;;;;;;20.36;72.89;97423.22;5017963;28;20029;-80
2021/07/16 05:16:11;;;;;;;30.15;18.88;;;;;;;20.25;73.03;97427.19;5017550;28;20366;-80
2021/07/16 05:18:37;;;;;;;29.75;18.42;;;;;;;20.32;72.99;97430.19;5001859;28;20032;-80
2021/07/16 05:21:04;;;;;;;31.98;19.20;;;;;;;20.27;72.91;97432.97;5017422;28;20132;-80
2021/07/16 05:23:29;;;;;;;30.85;20.38;;;;;;;20.31;73.05;97423.34;5002178;28;20086;-80
2021/07/16 05:25:55;;;;;;;30.88;20.02;;;;;;;20.36;72.96;97433.78;5000512;28;20025;-77
2021/07/16 05:28:20;;;;;;;33.78;21.13;;;;;;;20.39;73.04;97435.03;5017435;28;20033;-79
2021/07/16 05:30:47;;;;;;;30.98;20.25;;;;;;;20.50;72.71;97443.53;5011384;28;20037;-80
2021/07/16 05:33:12;;;;;;;39.85;22.23;;;;;;;20.56;72.70;97450.25;5052081;28;20470;-80
2021/07/16 05:35:38;;;;;;;37.65;21.77;;;;;;;20.55;73.00;97443.41;5030246;28;20033;-80
2021/07/16 05:38:04;;;;;;;35.10;22.60;;;;;;;20.51;72.82;97442.44;5029739;28;20116;-81
2021/07/16 05:40:30;;;;;;;41.60;24.58;;;;;;;20.51;72.99;97443.22;5020466;28;20508;-80
2021/07/16 05:42:56;;;;;;;40.55;23.50;;;;;;;20.57;73.03;97438.59;5033173;28;20048;-78
2021/07/16 05:45:21;;;;;;;37.75;22.98;;;;;;;20.45;73.17;97441.78;5048210;28;20025;-80
2021/07/16 05:47:47;;;;;;;38.75;22.80;;;;;;;20.50;73.23;97451.47;5032739;28;20063;-81
2021/07/16 05:50:12;;;;;;;36.78;21.92;;;;;;;20.59;72.35;97452.28;5015500;28;20029;-81
2021/07/16 05:52:38;;;;;;;39.13;22.67;;;;;;;20.64;73.02;97460.13;4999568;28;20029;-81
2021/07/16 05:55:04;;;;;;;35.55;21.90;;;;;;;20.67;72.72;97466.69;5016035;28;20040;-78
2021/07/16 05:57:31;;;;;;;37.63;22.58;;;;;;;20.70;72.20;97466.88;5031933;28;20072;-78
2021/07/16 05:59:57;;;;;;;37.00;22.17;;;;;;;20.66;72.44;97455.31;5032193;28;20353;-81
2021/07/16 06:02:22;;;;;;;39.88;23.60;;;;;;;20.61;72.97;97465.22;5030617;28;20563;-81
2021/07/16 06:04:48;;;;;;;36.72;21.98;;;;;;;20.58;73.00;97461.31;5015678;28;20028;-81
2021/07/16 06:07:13;;;;;;;37.60;22.40;;;;;;;20.69;72.73;97467.16;5016003;28;20033;-80
2021/07/16 06:09:39;;;;;;;39.05;22.80;;;;;;;20.67;72.68;97462.19;5016051;28;20047;-78
2021/07/16 06:12:04;;;;;;;38.17;23.42;;;;;;;20.61;72.98;97466.00;5015712;28;20033;-78
2021/07/16 06:14:30;;;;;;;40.90;23.77;;;;;;;20.59;72.97;97482.16;5031229;28;20044;-81
2021/07/16 06:16:56;;;;;;;37.88;21.65;;;;;;;20.56;73.16;97484.63;5016387;28;20025;-81
2021/07/16 06:19:21;;;;;;;35.55;22.63;;;;;;;20.64;72.93;97489.22;5032282;28;20728;-78
2021/07/16 06:21:47;;;;;;;37.28;22.80;;;;;;;20.66;72.80;97500.28;5017307;28;20033;-77
2021/07/16 06:24:13;;;;;;;35.80;21.63;;;;;;;20.74;72.61;97496.16;5031759;28;20032;-77
2021/07/16 06:26:38;;;;;;;35.50;21.35;;;;;;;20.76;72.89;97494.75;4999280;28;20025;-77
2021/07/16 06:29:04;;;;;;;35.78;22.33;;;;;;;20.64;72.96;97491.88;5014392;28;20304;-78
2021/07/16 06:31:30;;;;;;;34.35;21.52;;;;;;;20.70;72.83;97498.63;5031844;28;20029;-77
2021/07/16 06:33:55;;;;;;;27.17;18.90;;;;;;;20.81;72.40;97499.13;5014991;28;20090;-77
2021/07/16 06:36:21;;;;;;;29.08;17.70;;;;;;;20.70;72.39;97495.97;5015442;28;20036;-77
2021/07/16 06:38:47;;;;;;;23.63;16.23;;;;;;;20.73;72.27;97495.38;5045625;28;20108;-79
2021/07/16 06:41:12;;;;;;;19.42;14.63;;;;;;;20.73;72.28;97495.38;5031903;28;20068;-79
2021/07/16 06:43:38;;;;;;;21.77;15.18;;;;;;;20.67;72.47;97504.50;5032043;28;20028;-77
2021/07/16 06:46:03;;;;;;;22.05;15.25;;;;;;;20.71;72.37;97508.09;5008225;28;20116;-79
2021/07/16 06:48:28;;;;;;;18.48;13.38;;;;;;;20.69;72.23;97509.50;5004332;28;20033;-80
2021/07/16 06:50:54;;;;;;;14.70;11.90;;;;;;;20.59;72.34;97500.69;4998407;28;20024;-80
2021/07/16 06:53:19;;;;;;;16.88;12.27;;;;;;;20.63;72.42;97503.56;4999233;28;20438;-80
2021/07/16 06:55:46;;;;;;;17.73;12.70;;;;;;;20.74;72.74;97507.50;5031270;28;20040;-77
2021/07/16 06:58:14;;;;;;;15.98;11.10;;;;;;;20.89;72.49;97503.72;5006114;28;20034;-77
2021/07/16 07:00:39;;;;;;;13.45;10.40;;;;;;;21.14;71.31;97502.25;4993139;28;20025;-78
2021/07/16 07:03:04;;;;;;;10.93;8.95;;;;;;;21.22;71.22;97505.25;5013807;28;20037;-78
2021/07/16 07:05:30;;;;;;;9.52;8.32;;;;;;;21.33;70.86;97517.13;4993460;28;20055;-77
2021/07/16 07:07:55;;;;;;;10.63;8.45;;;;;;;21.37;71.06;97512.81;4994391;28;20383;-78
2021/07/16 07:10:21;;;;;;;10.00;8.18;;;;;;;21.46;70.28;97520.78;5040034;28;20033;-78
2021/07/16 07:12:46;;;;;;;9.13;8.02;;;;;;;21.57;69.72;97532.66;5048102;28;20025;-80
2021/07/16 07:15:12;;;;;;;8.60;7.28;;;;;;;21.57;70.32;97534.53;4995375;28;20033;-80
2021/07/16 07:17:42;;;;;;;9.68;8.35;;;;;;;21.32;70.18;97528.84;4984254;28;20026;-77
2021/07/16 07:20:09;;;;;;;9.10;7.85;;;;;;;21.30;70.46;97531.78;5017149;28;20033;-79
2021/07/16 07:22:34;;;;;;;8.93;7.80;;;;;;;21.36;70.10;97543.00;5029941;28;20059;-78
2021/07/16 07:25:00;;;;;;;8.57;6.72;;;;;;;21.26;69.96;97541.41;4996748;28;20053;-78
2021/07/16 07:27:26;;;;;;;7.05;6.15;;;;;;;21.03;70.39;97543.34;5010244;28;20120;-78
2021/07/16 07:29:51;;;;;;;8.77;6.95;;;;;;;21.05;70.92;97543.03;4996763;28;20067;-78
2021/07/16 07:32:16;;;;;;;8.98;7.25;;;;;;;21.20;70.82;97544.47;5049197;28;20495;-77
2021/07/16 07:34:42;;;;;;;10.77;7.38;;;;;;;21.13;70.87;97553.66;5016561;28;20032;-78
2021/07/16 07:37:07;;;;;;;8.55;6.35;;;;;;;21.13;71.02;97553.66;5014330;28;20475;-77
2021/07/16 07:39:33;;;;;;;8.15;7.20;;;;;;;21.09;70.75;97563.28;5015306;28;20033;-77
2021/07/16 07:41:59;;;;;;;9.75;6.75;;;;;;;21.04;70.51;97557.34;5031016;28;20095;-77
2021/07/16 07:44:24;;;;;;;7.80;6.78;;;;;;;21.05;70.67;97556.28;5031021;28;20060;-77
2021/07/16 07:46:50;;;;;;;6.88;6.18;;;;;;;21.08;70.82;97559.09;5048576;28;20040;-77
2021/07/16 07:49:15;;;;;;;10.15;7.38;;;;;;;21.12;71.02;97564.56;5047675;28;20083;-78
2021/07/16 07:51:44;;;;;;;9.55;7.35;;;;;;;21.09;70.87;97563.28;5013564;28;20112;-76
2021/07/16 07:54:10;;;;;;;8.00;6.55;;;;;;;21.04;70.81;97566.09;5017613;28;20162;-77
2021/07/16 07:56:35;;;;;;;8.02;6.65;;;;;;;21.03;70.90;97569.81;5013268;28;20029;-77
2021/07/16 07:59:02;;;;;;;8.25;6.70;;;;;;;21.05;70.82;97575.56;4996361;28;20064;-78
2021/07/16 12:42:35;;;;;;;10.13;9.15;;;;;;;23.10;70.99;97635.41;5105077;27;20443;-78
2021/07/16 12:45:09;;;;;;;10.73;9.52;;;;;;;23.49;69.36;97628.28;5052512;28;20474;-78
2021/07/16 12:47:56;;;;;;;10.55;9.50;;;;;;;23.43;69.38;97639.41;5068833;28;20032;-79
2021/07/16 12:50:23;;;;;;;11.88;10.73;;;;;;;23.69;67.23;97632.09;5086296;28;20086;-78
2021/07/16 12:52:54;;;;;;;10.90;9.80;;;;;;;23.90;65.94;97640.19;5069968;28;20093;-78
2021/07/16 12:55:21;;;;;;;11.02;9.93;;;;;;;23.97;66.11;97642.34;5053263;28;20024;-79
2021/07/16 12:57:47;;;;;;;11.18;10.07;;;;;;;23.92;66.73;97645.97;5073116;28;20698;-78
2021/07/16 13:00:16;;;;;;;10.85;9.70;;;;;;;23.92;65.04;97637.19;5092114;28;20027;-78
2021/07/16 13:02:42;;;;;;;11.80;10.60;;;;;;;23.82;66.13;97641.00;5053689;28;21155;-78
2021/07/16 13:05:07;;;;;;;13.50;11.63;;;;;;;23.43;67.03;97647.38;5069903;28;20116;-78
2021/07/16 13:07:33;;;;;;;13.52;12.07;;;;;;;23.05;68.22;97645.34;5083673;28;20039;-79
2021/07/16 13:09:58;;;;;;;14.30;11.98;;;;;;;23.18;67.10;97650.56;5078187;28;20433;-78
2021/07/16 13:12:34;;;;;;;14.52;12.50;;;;;;;22.82;69.25;97653.50;5073238;28;20042;-79
2021/07/16 13:15:06;;;;;;;17.70;14.85;;;;;;;22.93;69.51;97659.28;5086068;28;20068;-79
2021/07/16 13:17:34;;;;;;;15.25;12.95;;;;;;;22.85;67.79;97658.19;5092689;28;20423;-78
2021/07/16 13:20:08;;;;;;;17.02;14.38;;;;;;;22.81;69.54;97666.00;5053291;28;20123;-78
2021/07/16 13:22:39;;;;;;;14.47;12.97;;;;;;;23.14;66.71;97664.78;5069456;28;20140;-78
2021/07/16 13:25:11;;;;;;;17.42;15.32;;;;;;;23.14;67.78;97654.16;5085280;28;20029;-79
2021/07/16 13:27:37;;;;;;;16.60;13.85;;;;;;;23.47;65.21;97653.59;5106780;27;20070;-78
2021/07/16 13:30:04;;;;;;;18.17;14.45;;;;;;;23.24;66.05;97643.19;5089653;28;20529;-78
2021/07/16 13:32:30;;;;;;;17.77;14.73;;;;;;;23.44;64.76;97648.91;5058883;28;20094;-78
2021/07/16 13:34:58;;;;;;;17.83;15.05;;;;;;;23.43;66.53;97642.84;5057520;28;20066;-76
2021/07/16 13:37:26;;;;;;;17.35;14.75;;;;;;;23.26;66.57;97656.94;5054293;28;20067;-79
2021/07/16 13:39:51;;;;;;;16.23;13.90;;;;;;;23.51;66.21;97665.16;5071896;28;20032;-78
2021/07/16 13:42:17;;;;;;;17.08;14.40;;;;;;;23.60;64.01;97663.28;5067597;28;20485;-79
2021/07/16 13:44:42;;;;;;;17.23;13.98;;;;;;;23.26;64.22;97658.81;5062441;28;20036;-79
2021/07/16 13:47:07;;;;;;;16.65;14.85;;;;;;;23.29;64.76;97661.63;5049545;28;20089;-79
2021/07/16 13:49:33;;;;;;;19.55;15.07;;;;;;;23.33;64.84;97656.47;5085971;28;20024;-79
2021/07/16 13:51:58;;;;;;;18.83;15.18;;;;;;;23.37;64.83;97658.19;5049317;28;20028;-79
2021/07/16 13:54:24;;;;;;;16.73;14.75;;;;;;;23.46;65.18;97663.47;5055129;28;20029;-78
2021/07/16 13:56:54;;;;;;;17.48;14.80;;;;;;;23.40;66.49;97655.97;5037931;28;20096;-78
2021/07/16 13:59:20;;;;;;;19.52;16.13;;;;;;;23.25;66.40;97665.22;5056025;28;20433;-79
2021/07/16 14:01:46;;;;;;;20.92;15.55;;;;;;;23.31;66.98;97659.44;5037749;28;20511;-79
2021/07/16 14:04:11;;;;;;;18.70;15.07;;;;;;;23.21;66.30;97665.06;5072026;28;20035;-78
2021/07/16 14:06:37;;;;;;;17.10;14.35;;;;;;;23.52;66.27;97669.38;5055599;28;20081;-78
2021/07/16 14:09:02;;;;;;;17.45;15.55;;;;;;;23.40;65.04;97662.06;5055476;28;20530;-78
2021/07/16 14:11:28;;;;;;;19.50;14.77;;;;;;;23.28;64.63;97657.41;5055767;28;20614;-78
2021/07/16 14:13:53;;;;;;;18.10;16.20;;;;;;;23.16;65.68;97662.56;5051743;28;20044;-78
2021/07/16 14:16:20;;;;;;;17.90;15.02;;;;;;;23.46;64.55;97668.78;5072681;28;20107;-78
2021/07/16 14:18:45;;;;;;;16.85;14.75;;;;;;;23.38;63.20;97658.94;5059679;28;20043;-79
2021/07/16 14:21:13;;;;;;;16.65;14.80;;;;;;;23.50;63.35;97675.03;5034879;28;20022;-79
2021/07/16 14:23:38;;;;;;;17.02;14.52;;;;;;;23.49;64.22;97678.00;5071306;28;20035;-79
2021/07/16 14:26:06;;;;;;;15.52;13.90;;;;;;;23.54;63.68;97675.97;5054192;28;20032;-79
2021/07/16 14:28:32;;;;;;;16.65;14.85;;;;;;;23.58;65.24;97667.31;5053797;28;20115;-79
2021/07/16 14:30:58;;;;;;;16.70;14.73;;;;;;;23.38;63.67;97670.34;5076113;28;20020;-79
2021/07/16 14:33:24;;;;;;;16.25;14.45;;;;;;;23.35;64.12;97665.66;5043098;28;20357;-80
2021/07/16 14:35:49;;;;;;;17.25;14.23;;;;;;;23.47;64.10;97666.91;5053926;28;20060;-79
2021/07/16 14:38:14;;;;;;;14.38;12.43;;;;;;;23.49;63.78;97676.13;5054310;28;20440;-79
2021/07/16 14:40:40;;;;;;;14.77;12.20;;;;;;;23.61;63.55;97683.41;5069218;28;20032;-78
2021/07/16 14:43:06;;;;;;;16.08;12.73;;;;;;;23.54;63.18;97677.81;5053582;28;20111;-77
2021/07/16 14:45:31;;;;;;;14.52;12.52;;;;;;;23.51;63.63;97675.78;5037179;28;20475;-78
2021/07/16 14:47:57;;;;;;;14.05;12.35;;;;;;;23.83;63.64;97669.16;5054255;28;20115;-77
2021/07/16 14:50:22;;;;;;;12.93;11.38;;;;;;;23.71;62.88;97667.13;5053045;28;20039;-77
2021/07/16 14:52:50;;;;;;;13.88;12.10;;;;;;;23.74;63.43;97666.50;5070684;28;20028;-78
2021/07/16 14:55:18;;;;;;;14.73;12.40;;;;;;;23.70;62.66;97676.22;5070666;28;20047;-77
2021/07/16 14:57:43;;;;;;;13.38;11.38;;;;;;;23.85;61.69;97671.50;5054422;28;20085;-78
2021/07/16 15:00:13;;;;;;;13.98;11.38;;;;;;;23.87;61.65;97671.94;5070654;28;20122;-79
2021/07/16 15:02:39;;;;;;;14.10;11.85;;;;;;;23.89;62.72;97667.13;5074420;28;20036;-78
2021/07/16 15:05:06;;;;;;;12.82;11.52;;;;;;;24.07;62.49;97668.56;5051746;28;20040;-79
2021/07/16 15:07:31;;;;;;;12.75;11.25;;;;;;;23.95;62.37;97667.72;5069771;28;20034;-78
2021/07/16 15:09:57;;;;;;;13.20;10.95;;;;;;;23.81;62.73;97671.34;5053263;28;20476;-78
2021/07/16 15:12:23;;;;;;;13.45;11.95;;;;;;;23.55;63.24;97668.75;5058927;28;20842;-77
2021/07/16 15:14:49;;;;;;;13.45;11.63;;;;;;;23.59;63.01;97675.00;5068256;28;20046;-78
2021/07/16 15:17:15;;;;;;;13.35;11.95;;;;;;;23.68;62.29;97673.09;5036963;28;20633;-78
2021/07/16 15:19:40;;;;;;;14.55;11.93;;;;;;;23.62;61.79;97669.03;5070906;28;20185;-77
2021/07/16 15:22:06;;;;;;;14.07;12.38;;;;;;;23.61;62.26;97672.78;5053450;28;20515;-77
2021/07/16 15:24:31;;;;;;;14.52;11.60;;;;;;;23.64;61.94;97664.19;5069296;28;20125;-77
2021/07/16 15:26:56;;;;;;;16.40;11.75;;;;;;;23.41;62.98;97652.22;5065083;28;20031;-77
2021/07/16 15:29:24;;;;;;;13.90;12.43;;;;;;;23.68;62.07;97657.16;5067267;28;20059;-78
2021/07/16 15:31:50;;;;;;;13.00;11.07;;;;;;;23.77;62.79;97666.94;5041839;28;20697;-77
2021/07/16 15:34:16;;;;;;;14.15;12.65;;;;;;;23.47;63.22;97669.56;5046894;28;20085;-77
2021/07/16 15:36:42;;;;;;;15.02;12.05;;;;;;;23.40;63.21;97675.34;5052202;28;20032;-77
2021/07/16 15:39:07;;;;;;;16.08;12.35;;;;;;;23.31;62.81;97671.94;5049336;28;20028;-77
2021/07/16 15:41:33;;;;;;;15.80;13.38;;;;;;;23.13;63.67;97674.63;5049522;28;20056;-77
2021/07/16 15:44:00;;;;;;;15.82;13.40;;;;;;;23.32;63.19;97682.25;5033430;28;20128;-77
2021/07/16 15:46:25;;;;;;;19.88;14.52;;;;;;;23.43;62.95;97687.25;5067588;28;20085;-77
2021/07/16 15:48:51;;;;;;;15.65;13.40;;;;;;;23.34;63.53;97680.06;5039143;28;20029;-77
2021/07/16 15:51:16;;;;;;;18.77;14.10;;;;;;;23.07;63.85;97696.34;5025472;28;20017;-77
2021/07/16 15:53:41;;;;;;;17.73;14.10;;;;;;;23.09;63.82;97684.28;5034280;28;20640;-77
2021/07/16 15:56:07;;;;;;;16.60;13.65;;;;;;;23.05;63.45;97690.50;5073933;28;20033;-77
2021/07/16 15:58:33;;;;;;;16.80;13.55;;;;;;;22.99;63.15;97690.66;5069654;28;20032;-77
2021/07/16 16:00:58;;;;;;;15.70;12.38;;;;;;;23.03;63.74;97684.75;5060023;28;20085;-77